x

Shumagin Islands - 85nm South Of Sand Point, Ak (46075) Wave Buoy

7:50am - Tue 1st Sep 2015 All times are UTC.

  • Sig Wave height 3.9ft
  • Peak Period 7s
  • Average Period 6s
  • Wind
  • Sea Temp 55°f
  • 空気 Temp 53°f
  • Sea Pressure 1020.6mb

More Historic Weather Station data

Upgrade to MSW Pro to gain access to the past 30 days of data for over 8000 Wavebouys and Weather Stations around the globe.

Join Pro

Comparision Forecast

View Surf forecast
   
Tue 09/01 7:50am 4ft 7s 6s  -  2 mph 1020.6mb 55f 53f
6:50am 4ft 7s 6s 2 4 mph 1020.7mb 55f 53f
5:50am 4ft 7s 6s  -  2 mph 1020.2mb 55f 53f
4:50am 4ft 8s 6s  -  mph 1020mb 55f 53f
3:50am 4ft 8s 6s 4 7 mph 1019.5mb 55f 53f
2:50am 4ft 7s 6s 2
mph
1019.6mb 55f 53f
1:50am 4ft 8s 6s 4
mph
1019.7mb 55f 53f
12:50am 4ft 8s 6s 4 7 mph 1019.6mb 55f 53f
Mon 08/31 11:50pm 4ft 7s 6s 7 9 mph 1019.4mb 55f 53f
10:50pm 4.5ft 7s 6s 4 7 mph 1019.2mb 55f 53f
9:50pm 4ft 7s 6s 2 4 mph 1019.4mb 55f 53f
8:50pm 4.5ft 7s 6s 2 4 mph 1019.3mb 55f 53f
7:50pm 4.5ft 7s 6s 7 9 mph 1019.1mb 55f 53f
6:50pm 4.5ft 7s 6s 7 9 mph 1019.3mb 55f 53f
5:50pm 4.5ft 8s 5s 4 7 mph 1019mb 55f 53f
4:50pm 4.5ft 7s 5s 2 4 mph 1018.6mb 55f 53f
3:50pm 4.5ft 7s 6s 2
mph
1018.4mb 55f 52f
2:50pm 5ft 8s 6s 2 4 mph 1018.3mb 55f 52f
1:50pm 4.5ft 8s 5s 2 4 mph 1018mb 55f 52f
12:50pm 5ft 8s 6s 4 7 mph 1017.8mb 55f 52f
11:50am 4.5ft 8s 6s 7 9 mph 1017.5mb 55f 52f
10:50am 5ft 8s 6s 7 9 mph 1017.4mb 55f 53f
9:50am 5ft 8s 6s 9 11 mph 1017.3mb 55f 53f
8:50am 5.5ft 8s 6s 11 13 mph 1016.7mb 55f 53f
7:50am 5ft 8s 6s 9 11 mph 1016.4mb 55f 53f
6:50am 5.5ft 7s 6s 9
mph
1016mb 55f 53f
5:50am 5.5ft 8s 6s 7 9 mph 1015.4mb 55f 53f
4:50am 6ft 8s 6s 7 9 mph 1014.9mb 55f 53f
3:50am 6ft 8s 6s 7 9 mph 1014.7mb 55f 54f
2:50am 6ft 8s 6s 4 9 mph 1014.5mb 55f 54f
1:50am 6ft 8s 6s 7 11 mph 1014.2mb 55f 53f
12:50am 6ft 8s 6s 9 13 mph 1014mb 55f 53f
Sun 08/30 11:50pm 6ft 8s 6s 13 16 mph 1014.1mb 55f 53f
10:50pm 6.5ft 9s 6s 16 20 mph 1014mb 55f 52f
9:50pm 7ft 8s 6s 16 20 mph 1013.8mb 55f 52f
8:50pm 7ft 8s 6s 18 22 mph 1013.5mb 55f 52f
7:50pm 8ft 8s 6s 18 22 mph 1013.1mb 55f 52f
6:50pm 8.5ft 8s 6s 20 25 mph 1012.5mb 55f 52f
5:50pm 9ft 8s 6s 22 27 mph 1012.2mb 55f 53f
4:50pm 8.5ft 8s 6s 20 25 mph 1011.6mb 55f 53f
3:50pm 8.5ft 9s 6s 18 22 mph 1011.3mb 55f 53f
2:50pm 8ft 9s 6s 16 20 mph 1010.9mb 55f 53f
1:50pm 8ft 9s 7s 16 20 mph 1010mb 55f 53f
12:50pm 8ft 9s 7s 16 20 mph 1009.5mb 55f 53f
11:50am 9ft 9s 7s 18 20 mph 1009.3mb 55f 53f
10:50am 8.5ft 9s 7s 20 25 mph 1008.5mb 55f 53f
9:50am 9ft 9s 7s 13 16 mph 1008.1mb 55f 53f
8:50am 9.5ft 9s 7s 18 20 mph 1007.6mb 55f 55f
7:50am 10ft 9s 7s 22 27 mph 1007.3mb 55f 55f
6:50am 11ft 8s 7s 25 31 mph 1007.1mb 55f 56f
5:50am 10ft 8s 7s 22 29 mph 1007mb 55f 56f
4:50am 11ft 9s 7s 22 29 mph 1007.3mb 55f 56f
3:50am 12ft 9s 7s 25 29 mph 1007.5mb 55f 56f
2:50am 11.5ft 9s 7s 25 34 mph 1008mb 55f 56f
1:50am 10.5ft 9s 6s 27 34 mph 1008.2mb 55f 56f
12:50am 11.5ft 8s 7s 31 38 mph 1008.3mb 55f 56f
Sat 08/29 11:50pm 11ft 8s 6s 27 34 mph 1009.2mb 55f 56f
10:50pm 12ft 9s 7s 29 36 mph 1009.5mb 55f 56f
9:50pm 11ft 8s 7s 29 36 mph 1009.8mb 55f 56f
8:50pm 10ft 8s 6s 27 34 mph 1010.3mb 55f 56f
7:50pm 10ft 8s 6s 27 36 mph 1010.3mb 55f 56f
6:50pm 9.5ft 7s 6s 29 36 mph 1010.9mb 55f 57f
5:50pm 9ft 7s 6s 36 43 mph 1010.3mb 55f 57f
4:50pm 10ft 8s 6s 27 34 mph 1011.6mb 55f 56f
3:50pm 10ft 8s 6s 27 36 mph 1012.2mb 55f 56f
2:50pm  -   -   -  25 29 mph 1013.7mb 56f -
1:50pm 7ft 6s 6s 22 29 mph 1014.7mb 56f 55f
12:50pm 6.5ft 6s 5s 27 34 mph 1015mb 56f 56f
11:50am 6.5ft 6s 5s 25 31 mph 1015.6mb 56f 57f
10:50am 6ft 14s 6s 18 22 mph 1016.9mb 56f 57f
9:50am 6.5ft 14s 6s 20 25 mph 1017.7mb 56f 57f
8:50am 6ft 15s 5s 22 27 mph 1018.7mb 56f 56f
7:50am 5ft 14s 6s 22 25 mph 1019.7mb 56f 57f
6:50am 5ft 15s 6s 20 29 mph 1020.4mb 56f 57f
5:50am 5.5ft 14s 6s 16 18 mph 1021.2mb 56f 57f
4:50am 6ft 15s 6s 13 18 mph 1021.7mb 56f 57f
3:50am 6ft 15s 6s 18 25 mph 1022.5mb 56f 57f
2:50am 6ft 15s 6s 18 22 mph 1023mb 56f 56f
1:50am 6ft 15s 6s 18 22 mph 1023.7mb 56f 56f
12:50am 5.5ft 15s 6s 16 20 mph 1024.4mb 56f 56f
Fri 08/28 11:50pm 5.5ft 14s 6s 20 25 mph 1024.5mb 56f 55f
10:50pm 6ft 15s 6s 13 16 mph 1025.5mb 56f 55f
9:50pm 6ft 14s 6s 13 16 mph 1025.9mb 55f 55f
8:50pm 6ft 16s 6s 13 16 mph 1026.5mb 56f 54f
7:50pm 7.5ft 16s 6s 13 16 mph 1026.2mb 56f 54f
6:50pm 7ft 15s 6s 18 20 mph 1026.3mb 56f 55f
5:50pm 7ft 16s 6s 18 22 mph 1026.4mb 56f 55f
4:50pm 8ft 16s 6s 20 22 mph 1026.5mb 56f 54f
3:50pm 8ft 16s 6s 22 25 mph 1026.7mb 56f 54f
2:50pm 7.5ft 16s 6s 20 22 mph 1026.9mb 56f 54f
1:50pm 7.5ft 6s 5s 22 27 mph 1027.1mb 56f 54f
12:50pm 8ft 16s 6s 20 22 mph 1027.1mb 56f 54f
11:50am 8ft 17s 6s 20 22 mph 1027.3mb 56f 55f
10:50am 7.5ft 17s 6s 20 22 mph 1027.8mb 56f 55f
9:50am 7ft 8s 6s 16 20 mph 1027.9mb 56f 55f